Time;durP1;ratioP1;P1;durP2;ratioP2;P2;SDS_P1;SDS_P2;PMS_P1;PMS_P2;Temp;Humidity;BMP_temperature;BMP_pressure;BME280_temperature;BME280_humidity;BME280_pressure;Samples;Min_cycle;Max_cycle;Signal;HPM_P1;HPM_P2
2021/03/15 00:01:00;;;;;;;6.47;4.90;;;;;;;;;;5040293;28;20221;-77
2021/03/15 00:03:25;;;;;;;3.87;3.53;;;;;;;;;;5039513;28;20205;-77
2021/03/15 00:05:50;;;;;;;7.60;4.67;;;;;;;;;;5057455;28;20539;-77
2021/03/15 00:08:16;;;;;;;5.03;4.47;;;;;;;;;;5056897;28;20221;-77
2021/03/15 00:10:41;;;;;;;6.20;4.93;;;;;;;;;;5057310;28;20288;-77
2021/03/15 00:13:07;;;;;;;6.83;4.63;;;;;;;;;;5022797;28;20249;-77
2021/03/15 00:15:34;;;;;;;4.43;4.03;;;;;;;;;;5040006;28;20272;-77
2021/03/15 00:17:59;;;;;;;4.80;4.30;;;;;;;;;;5039957;28;20506;-77
2021/03/15 00:20:24;;;;;;;6.23;4.27;;;;;;;;;;5056645;28;20853;-78
2021/03/15 00:22:50;;;;;;;5.00;3.60;;;;;;;;;;5039919;28;20249;-77
2021/03/15 00:25:17;;;;;;;4.73;4.13;;;;;;;;;;5056282;28;20235;-77
2021/03/15 00:27:43;;;;;;;8.20;4.00;;;;;;;;;;5039760;28;20300;-77
2021/03/15 00:30:14;;;;;;;4.10;3.67;;;;;;;;;;5039107;28;20487;-76
2021/03/15 00:32:40;;;;;;;4.80;4.30;;;;;;;;;;5039492;28;20734;-77
2021/03/15 00:35:06;;;;;;;6.33;4.40;;;;;;;;;;5056436;28;20551;-77
2021/03/15 00:37:32;;;;;;;8.10;4.13;;;;;;;;;;5039772;28;20216;-78
2021/03/15 00:39:57;;;;;;;4.03;3.53;;;;;;;;;;5056737;28;20460;-77
2021/03/15 00:42:22;;;;;;;6.50;3.40;;;;;;;;;;5056277;28;20230;-77
2021/03/15 00:44:48;;;;;;;4.37;3.33;;;;;;;;;;5039360;28;20453;-77
2021/03/15 00:47:13;;;;;;;5.90;3.60;;;;;;;;;;5056173;28;20219;-78
2021/03/15 00:49:38;;;;;;;3.50;3.20;;;;;;;;;;5057283;28;20224;-77
2021/03/15 00:52:04;;;;;;;5.83;3.70;;;;;;;;;;5056782;28;20227;-77
2021/03/15 00:54:29;;;;;;;6.60;3.37;;;;;;;;;;5038515;28;20298;-77
2021/03/15 00:56:54;;;;;;;7.17;3.80;;;;;;;;;;5057092;28;20455;-77
2021/03/15 00:59:20;;;;;;;4.20;3.23;;;;;;;;;;5038961;28;20295;-77
2021/03/15 01:01:45;;;;;;;4.07;3.17;;;;;;;;;;5039503;28;20252;-79
2021/03/15 01:04:13;;;;;;;7.40;3.67;;;;;;;;;;5056885;28;20547;-77
2021/03/15 01:06:38;;;;;;;5.87;3.80;;;;;;;;;;5057494;28;20225;-77
2021/03/15 01:09:04;;;;;;;5.33;3.30;;;;;;;;;;5057757;28;20498;-79
2021/03/15 01:11:29;;;;;;;4.63;3.00;;;;;;;;;;5026579;28;20208;-78
2021/03/15 01:13:55;;;;;;;4.20;3.40;;;;;;;;;;5060857;28;20217;-77
2021/03/15 01:16:20;;;;;;;3.50;3.10;;;;;;;;;;5059894;28;20274;-78
2021/03/15 01:18:45;;;;;;;3.63;3.03;;;;;;;;;;5043173;28;20213;-76
2021/03/15 01:21:13;;;;;;;5.00;2.70;;;;;;;;;;5042659;28;20561;-78
2021/03/15 01:23:38;;;;;;;9.80;4.13;;;;;;;;;;5043218;28;20209;-78
2021/03/15 01:26:04;;;;;;;3.40;2.97;;;;;;;;;;5043007;28;20467;-77
2021/03/15 01:28:29;;;;;;;3.80;3.23;;;;;;;;;;5059756;28;20275;-78
2021/03/15 01:30:54;;;;;;;5.77;3.50;;;;;;;;;;5043221;28;20603;-78
2021/03/15 01:33:20;;;;;;;5.30;4.17;;;;;;;;;;5026174;28;20221;-77
2021/03/15 01:35:45;;;;;;;5.73;3.70;;;;;;;;;;5042900;28;20221;-77
2021/03/15 01:38:11;;;;;;;4.33;3.70;;;;;;;;;;5025933;28;20523;-77
2021/03/15 01:40:40;;;;;;;4.37;3.53;;;;;;;;;;5059937;28;20295;-77
2021/03/15 01:43:06;;;;;;;5.43;3.77;;;;;;;;;;5042719;28;20244;-77
2021/03/15 01:45:32;;;;;;;4.00;3.60;;;;;;;;;;5041996;28;20443;-77
2021/03/15 01:47:57;;;;;;;4.70;3.90;;;;;;;;;;5059887;28;20569;-77
2021/03/15 01:50:22;;;;;;;6.53;4.00;;;;;;;;;;5059521;28;20468;-77
2021/03/15 01:52:50;;;;;;;8.97;4.23;;;;;;;;;;5059588;28;20300;-77
2021/03/15 01:55:16;;;;;;;6.50;4.07;;;;;;;;;;5041998;28;20236;-76
2021/03/15 01:57:42;;;;;;;4.97;4.40;;;;;;;;;;5042674;28;20447;-77
2021/03/15 02:00:09;;;;;;;7.53;4.27;;;;;;;;;;5059737;28;20930;-79
2021/03/15 02:02:44;;;;;;;6.47;4.03;;;;;;;;;;5059169;28;20583;-77
2021/03/15 02:05:10;;;;;;;6.20;3.77;;;;;;;;;;5042399;28;20798;-77
2021/03/15 02:07:35;;;;;;;5.37;4.10;;;;;;;;;;5059189;28;20527;-77
2021/03/15 02:10:01;;;;;;;7.07;4.10;;;;;;;;;;5059569;28;20516;-77
2021/03/15 02:12:40;;;;;;;6.90;4.33;;;;;;;;;;5042069;28;20213;-76
2021/03/15 02:15:21;;;;;;;7.30;5.20;;;;;;;;;;5059608;28;20637;-77
2021/03/15 02:17:48;;;;;;;5.07;3.83;;;;;;;;;;5042792;28;20508;-77
2021/03/15 02:20:29;;;;;;;4.30;3.60;;;;;;;;;;5043129;28;20772;-79
2021/03/15 02:23:12;;;;;;;6.30;4.63;;;;;;;;;;5041913;28;20449;-77
2021/03/15 02:26:21;;;;;;;6.40;3.97;;;;;;;;;;5041757;28;20490;-77
2021/03/15 02:29:06;;;;;;;5.20;4.10;;;;;;;;;;5058865;28;20471;-79
2021/03/15 02:31:48;;;;;;;5.57;4.20;;;;;;;;;;5054465;28;20468;-78
2021/03/15 02:34:50;;;;;;;3.93;3.40;;;;;;;;;;5060106;28;20501;-78
2021/03/15 02:37:19;;;;;;;4.50;3.73;;;;;;;;;;5077030;28;20466;-77
2021/03/15 02:39:46;;;;;;;6.13;4.33;;;;;;;;;;5059999;28;20451;-77
2021/03/15 02:42:15;;;;;;;6.20;3.77;;;;;;;;;;5042431;28;20472;-77
2021/03/15 02:44:43;;;;;;;4.10;3.70;;;;;;;;;;5035338;28;20474;-77
2021/03/15 02:47:12;;;;;;;4.43;3.73;;;;;;;;;;5047528;28;20469;-76
2021/03/15 02:49:37;;;;;;;4.03;3.63;;;;;;;;;;5045739;28;20451;-77
2021/03/15 02:52:03;;;;;;;4.77;4.33;;;;;;;;;;5060329;28;20470;-76
2021/03/15 02:54:30;;;;;;;7.57;4.10;;;;;;;;;;5025704;28;20276;-77
2021/03/15 02:56:57;;;;;;;5.80;4.37;;;;;;;;;;5063497;28;20471;-77
2021/03/15 02:59:23;;;;;;;4.10;3.70;;;;;;;;;;5066335;28;20463;-77
2021/03/15 03:01:49;;;;;;;6.70;3.37;;;;;;;;;;5025562;28;20472;-77
2021/03/15 03:04:15;;;;;;;6.80;4.23;;;;;;;;;;5058383;28;20562;-76
2021/03/15 03:06:42;;;;;;;5.70;3.50;;;;;;;;;;5041673;28;20221;-78
2021/03/15 03:09:10;;;;;;;4.20;3.80;;;;;;;;;;5041918;28;20490;-77
2021/03/15 03:11:36;;;;;;;4.83;3.93;;;;;;;;;;5040900;28;20713;-77
2021/03/15 03:14:04;;;;;;;17.03;5.87;;;;;;;;;;5041436;28;20464;-77
2021/03/15 03:16:37;;;;;;;5.40;4.70;;;;;;;;;;5041128;28;20499;-78
2021/03/15 03:19:03;;;;;;;5.67;4.03;;;;;;;;;;5058625;28;20525;-77
2021/03/15 03:21:30;;;;;;;5.67;5.10;;;;;;;;;;5058240;28;20912;-78
2021/03/15 03:23:57;;;;;;;5.43;4.93;;;;;;;;;;5040970;28;20212;-77
2021/03/15 03:26:28;;;;;;;7.17;4.90;;;;;;;;;;5057937;28;20547;-78
2021/03/15 03:28:54;;;;;;;7.43;5.50;;;;;;;;;;5041021;28;20788;-77
2021/03/15 03:31:20;;;;;;;13.10;6.30;;;;;;;;;;5040300;28;20521;-78
2021/03/15 03:33:46;;;;;;;6.63;4.90;;;;;;;;;;5023977;28;20487;-78
2021/03/15 03:36:11;;;;;;;8.47;6.70;;;;;;;;;;5024259;28;20551;-78
2021/03/15 03:38:37;;;;;;;11.40;6.17;;;;;;;;;;5023563;28;20848;-77
2021/03/15 03:41:03;;;;;;;13.20;6.20;;;;;;;;;;5040625;28;20300;-77
2021/03/15 03:43:28;;;;;;;7.93;6.73;;;;;;;;;;5057180;28;20467;-77
2021/03/15 03:45:54;;;;;;;13.37;5.97;;;;;;;;;;5040484;28;20221;-76
2021/03/15 03:48:19;;;;;;;13.43;7.50;;;;;;;;;;5039936;28;20506;-78
2021/03/15 03:50:45;;;;;;;7.20;5.63;;;;;;;;;;5040923;28;20582;-76
2021/03/15 03:53:13;;;;;;;7.37;6.63;;;;;;;;;;5040844;28;20499;-78
2021/03/15 03:56:08;;;;;;;9.40;6.13;;;;;;;;;;5023733;28;20229;-77
2021/03/15 03:58:44;;;;;;;7.43;5.57;;;;;;;;;;5040184;28;20464;-79
2021/03/15 04:01:11;;;;;;;7.60;6.20;;;;;;;;;;5023859;28;20721;-77
2021/03/15 04:03:37;;;;;;;9.20;6.97;;;;;;;;;;5039818;28;20468;-78
2021/03/15 04:06:05;;;;;;;17.80;9.10;;;;;;;;;;5024570;28;20479;-78
2021/03/15 04:08:39;;;;;;;8.63;5.90;;;;;;;;;;5039833;28;20469;-77
2021/03/15 04:11:05;;;;;;;8.30;6.33;;;;;;;;;;5023697;28;20756;-77
2021/03/15 04:13:30;;;;;;;8.90;5.30;;;;;;;;;;5039059;28;20464;-77
2021/03/15 04:15:56;;;;;;;10.03;5.60;;;;;;;;;;5039909;28;20471;-77
2021/03/15 04:18:25;;;;;;;11.67;6.23;;;;;;;;;;5056613;28;20249;-77
2021/03/15 04:20:54;;;;;;;9.80;5.67;;;;;;;;;;5039948;28;20263;-78
2021/03/15 04:23:24;;;;;;;10.10;6.50;;;;;;;;;;5023401;28;20482;-77
2021/03/15 04:25:50;;;;;;;8.17;5.50;;;;;;;;;;5057391;28;20521;-77
2021/03/15 04:28:16;;;;;;;9.83;5.43;;;;;;;;;;5057340;28;20464;-77
2021/03/15 04:30:42;;;;;;;8.17;6.27;;;;;;;;;;5039926;28;20594;-79
2021/03/15 04:33:08;;;;;;;13.53;7.17;;;;;;;;;;5039855;28;20516;-77
2021/03/15 04:35:34;;;;;;;11.43;6.17;;;;;;;;;;5039782;28;20471;-77
2021/03/15 04:38:02;;;;;;;9.93;6.83;;;;;;;;;;5040266;28;20594;-78
2021/03/15 04:40:28;;;;;;;8.25;6.65;;;;;;;;;;5056925;28;20461;-77
2021/03/15 04:42:59;;;;;;;10.43;6.20;;;;;;;;;;5057012;28;20476;-77
2021/03/15 04:45:29;;;;;;;10.83;6.20;;;;;;;;;;5056824;28;20518;-76
2021/03/15 04:47:56;;;;;;;8.80;5.77;;;;;;;;;;5039240;28;20924;-77
2021/03/15 04:50:21;;;;;;;9.20;5.73;;;;;;;;;;5039962;28;20469;-77
2021/03/15 04:52:47;;;;;;;12.30;6.40;;;;;;;;;;5022833;28;20940;-77
2021/03/15 04:55:13;;;;;;;9.37;5.93;;;;;;;;;;5023162;28;20221;-77
2021/03/15 04:57:39;;;;;;;6.87;5.30;;;;;;;;;;5056750;28;20544;-77
2021/03/15 05:00:07;;;;;;;9.93;6.23;;;;;;;;;;5040285;28;20790;-79
2021/03/15 05:02:34;;;;;;;6.90;5.70;;;;;;;;;;5022997;28;20226;-76
2021/03/15 05:05:00;;;;;;;9.63;6.10;;;;;;;;;;5039708;28;20471;-78
2021/03/15 05:07:26;;;;;;;11.20;7.47;;;;;;;;;;5039538;28;20455;-78
2021/03/15 05:09:51;;;;;;;10.03;6.63;;;;;;;;;;5039303;28;20784;-78
2021/03/15 05:12:17;;;;;;;8.00;4.93;;;;;;;;;;5056684;28;20282;-77
2021/03/15 05:14:43;;;;;;;9.97;5.73;;;;;;;;;;5038584;28;20275;-77
2021/03/15 05:17:09;;;;;;;7.80;6.17;;;;;;;;;;5056777;28;20908;-76
2021/03/15 05:19:35;;;;;;;15.63;6.13;;;;;;;;;;5056226;28;20483;-77
2021/03/15 05:22:01;;;;;;;7.37;5.80;;;;;;;;;;5039359;28;20467;-77
2021/03/15 05:24:27;;;;;;;7.80;5.83;;;;;;;;;;5039352;28;20248;-77
2021/03/15 05:26:52;;;;;;;20.43;6.57;;;;;;;;;;5038799;28;20452;-76
2021/03/15 05:29:18;;;;;;;8.83;5.67;;;;;;;;;;5039397;28;20232;-76
2021/03/15 05:31:46;;;;;;;7.87;6.20;;;;;;;;;;5039065;28;20236;-76
2021/03/15 05:34:12;;;;;;;6.90;6.00;;;;;;;;;;5039397;28;20479;-77
2021/03/15 05:36:38;;;;;;;12.70;6.40;;;;;;;;;;5056229;28;20467;-77
2021/03/15 05:39:05;;;;;;;9.07;5.70;;;;;;;;;;5039586;28;20229;-77
2021/03/15 05:41:58;;;;;;;11.97;5.53;;;;;;;;;;5039123;28;20287;-77
2021/03/15 05:44:44;;;;;;;7.13;5.93;;;;;;;;;;5056257;28;20456;-77
2021/03/15 05:47:31;;;;;;;7.67;5.30;;;;;;;;;;5039352;28;20506;-77
2021/03/15 05:50:28;;;;;;;8.50;6.00;;;;;;;;;;5021875;28;20467;-76
2021/03/15 05:53:20;;;;;;;8.43;6.23;;;;;;;;;;5038621;28;20460;-78
2021/03/15 05:56:00;;;;;;;7.90;5.93;;;;;;;;;;5011320;28;20719;-77
2021/03/15 05:58:50;;;;;;;7.03;5.43;;;;;;;;;;5042577;28;20444;-77
2021/03/15 06:01:26;;;;;;;9.53;5.97;;;;;;;;;;5059863;28;20845;-77
2021/03/15 06:04:32;;;;;;;11.87;6.10;;;;;;;;;;5025771;28;20532;-77
2021/03/15 06:07:02;;;;;;;8.57;6.37;;;;;;;;;;5041419;28;20524;-78
2021/03/15 06:09:30;;;;;;;9.77;6.80;;;;;;;;;;5025904;28;20456;-78
2021/03/15 06:12:01;;;;;;;9.50;6.67;;;;;;;;;;5042120;28;20903;-77
2021/03/15 06:14:30;;;;;;;8.20;7.10;;;;;;;;;;5042597;28;20541;-77
2021/03/15 06:16:56;;;;;;;11.13;6.93;;;;;;;;;;5058829;28;20464;-76
2021/03/15 06:19:24;;;;;;;9.10;6.27;;;;;;;;;;5041986;28;20456;-77
2021/03/15 06:21:49;;;;;;;14.73;6.60;;;;;;;;;;5024858;28;20736;-77
2021/03/15 06:24:15;;;;;;;10.20;6.00;;;;;;;;;;5025143;28;20475;-78
2021/03/15 06:26:40;;;;;;;10.87;8.13;;;;;;;;;;5058899;28;20304;-77
2021/03/15 06:29:06;;;;;;;9.60;6.47;;;;;;;;;;5025582;28;20233;-77
2021/03/15 06:31:35;;;;;;;11.00;6.77;;;;;;;;;;5041924;28;20287;-77
2021/03/15 06:34:01;;;;;;;12.03;6.83;;;;;;;;;;5041210;28;20678;-78
2021/03/15 06:36:27;;;;;;;9.77;6.00;;;;;;;;;;5025293;28;20466;-77
2021/03/15 06:38:55;;;;;;;9.40;6.23;;;;;;;;;;5008884;28;20209;-77
2021/03/15 06:41:22;;;;;;;9.10;5.90;;;;;;;;;;5025117;28;20460;-77
2021/03/15 06:43:47;;;;;;;15.20;6.60;;;;;;;;;;5058468;28;20542;-74
2021/03/15 06:46:15;;;;;;;9.10;5.90;;;;;;;;;;5041740;28;20451;-75
2021/03/15 06:48:40;;;;;;;19.97;8.77;;;;;;;;;;5041096;28;20283;-75
2021/03/15 06:51:06;;;;;;;9.10;5.77;;;;;;;;;;5037413;28;20471;-75
2021/03/15 06:53:39;;;;;;;14.80;5.30;;;;;;;;;;5005152;28;20243;-75
2021/03/15 06:56:16;;;;;;;9.50;5.57;;;;;;;;;;5021453;28;20222;-74
2021/03/15 06:59:07;;;;;;;8.10;5.70;;;;;;;;;;5021113;28;20461;-76
2021/03/15 07:01:33;;;;;;;7.43;5.57;;;;;;;;;;5037934;28;20762;-75
2021/03/15 07:04:06;;;;;;;7.73;4.87;;;;;;;;;;5021608;28;20464;-74
2021/03/15 07:06:36;;;;;;;10.00;5.43;;;;;;;;;;5038368;28;20344;-75
2021/03/15 07:09:11;;;;;;;15.37;5.40;;;;;;;;;;5021627;28;20510;-74
2021/03/15 07:11:37;;;;;;;9.57;5.77;;;;;;;;;;5021303;28;20547;-74
2021/03/15 07:14:02;;;;;;;8.27;5.87;;;;;;;;;;5020673;28;20548;-75
2021/03/15 07:16:30;;;;;;;8.47;5.60;;;;;;;;;;5021550;28;20225;-74
2021/03/15 07:18:57;;;;;;;10.20;5.60;;;;;;;;;;5038177;28;20288;-73
2021/03/15 07:21:39;;;;;;;8.60;4.83;;;;;;;;;;5020853;28;20477;-73
2021/03/15 07:24:10;;;;;;;9.33;5.70;;;;;;;;;;5003996;28;20448;-74
2021/03/15 07:26:43;;;;;;;10.17;6.03;;;;;;;;;;5004664;28;20469;-75
2021/03/15 07:29:16;;;;;;;11.57;5.80;;;;;;;;;;5004978;28;20546;-74
2021/03/15 07:31:45;;;;;;;6.90;5.40;;;;;;;;;;5038098;28;20472;-74
2021/03/15 07:34:12;;;;;;;7.43;4.77;;;;;;;;;;5037502;28;20544;-74
2021/03/15 07:36:48;;;;;;;6.10;5.40;;;;;;;;;;5020939;28;20480;-73
2021/03/15 07:39:13;;;;;;;6.97;5.20;;;;;;;;;;5020308;28;20466;-74
2021/03/15 07:41:40;;;;;;;7.90;5.80;;;;;;;;;;5020557;28;20757;-74
2021/03/15 07:44:21;;;;;;;11.63;6.10;;;;;;;;;;5037158;28;20279;-74
2021/03/15 07:46:48;;;;;;;7.03;5.40;;;;;;;;;;5004094;28;20490;-73
2021/03/15 07:49:35;;;;;;;10.30;6.00;;;;;;;;;;5003608;28;20445;-73
2021/03/15 07:52:09;;;;;;;7.27;5.63;;;;;;;;;;5019821;28;20482;-74
2021/03/15 07:54:35;;;;;;;9.27;6.13;;;;;;;;;;5037270;28;20477;-73
2021/03/15 07:57:20;;;;;;;8.00;5.37;;;;;;;;;;5033606;28;20454;-75
2021/03/15 07:59:48;;;;;;;6.10;5.37;;;;;;;;;;5018827;28;20456;-75
2021/03/15 08:02:15;;;;;;;6.47;5.40;;;;;;;;;;5018310;28;20506;-74
2021/03/15 08:04:41;;;;;;;11.30;6.10;;;;;;;;;;5032488;28;20491;-74
2021/03/15 08:07:08;;;;;;;8.60;6.43;;;;;;;;;;5019277;28;20461;-75
2021/03/15 08:09:33;;;;;;;8.37;6.03;;;;;;;;;;5019865;28;20226;-75
2021/03/15 08:11:58;;;;;;;7.60;5.93;;;;;;;;;;5036456;28;20533;-73
2021/03/15 08:14:25;;;;;;;7.27;6.13;;;;;;;;;;5019737;28;20214;-75
2021/03/15 08:16:53;;;;;;;9.27;7.43;;;;;;;;;;5019528;28;20305;-74
2021/03/15 08:19:19;;;;;;;9.30;6.57;;;;;;;;;;4979607;28;20466;-73
2021/03/15 08:21:45;;;;;;;7.53;5.93;;;;;;;;;;4964559;28;20505;-75
2021/03/15 08:24:13;;;;;;;7.33;5.20;;;;;;;;;;4980215;28;20456;-77
2021/03/15 08:26:40;;;;;;;9.33;6.60;;;;;;;;;;4981650;28;20462;-77
2021/03/15 08:29:05;;;;;;;8.03;5.70;;;;;;;;;;5019139;28;20469;-77
2021/03/15 08:31:41;;;;;;;6.30;5.40;;;;;;;;;;5010745;28;20465;-79
2021/03/15 08:34:09;;;;;;;6.17;5.57;;;;;;;;;;5000209;28;20232;-78
2021/03/15 08:36:40;;;;;;;7.60;5.43;;;;;;;;;;5013660;28;20476;-78
2021/03/15 08:39:27;;;;;;;8.10;5.40;;;;;;;;;;4999726;28;20474;-78
2021/03/15 08:42:14;;;;;;;7.83;5.60;;;;;;;;;;5016861;28;20466;-78
2021/03/15 08:44:43;;;;;;;6.10;5.50;;;;;;;;;;4998386;28;20858;-78
2021/03/15 08:47:09;;;;;;;8.00;5.80;;;;;;;;;;5017158;28;20514;-77
2021/03/15 08:49:37;;;;;;;6.90;5.10;;;;;;;;;;4982427;28;20482;-77
2021/03/15 08:52:03;;;;;;;7.33;4.97;;;;;;;;;;5015511;28;20546;-77
2021/03/15 08:54:42;;;;;;;7.03;5.80;;;;;;;;;;4996397;28;20476;-76
2021/03/15 08:57:32;;;;;;;5.83;5.13;;;;;;;;;;5015835;28;20450;-77
2021/03/15 08:59:58;;;;;;;10.03;4.77;;;;;;;;;;4996055;28;20477;-77
2021/03/15 09:02:34;;;;;;;5.80;5.10;;;;;;;;;;5007125;28;20885;-78
2021/03/15 09:05:27;;;;;;;8.00;5.30;;;;;;;;;;5002894;28;20565;-76
2021/03/15 09:07:55;;;;;;;7.80;5.40;;;;;;;;;;4983018;28;20461;-77
2021/03/15 09:10:23;;;;;;;8.27;6.00;;;;;;;;;;5000120;28;20471;-77
2021/03/15 09:13:17;;;;;;;6.73;6.07;;;;;;;;;;5016226;28;20497;-78
2021/03/15 09:15:45;;;;;;;8.20;6.00;;;;;;;;;;4983837;28;20429;-78
2021/03/15 09:18:43;;;;;;;6.87;5.97;;;;;;;;;;4999486;28;20754;-76
2021/03/15 09:21:23;;;;;;;7.13;5.77;;;;;;;;;;5016048;28;20839;-78
2021/03/15 09:23:50;;;;;;;7.00;5.67;;;;;;;;;;5015997;28;20463;-77
2021/03/15 09:26:24;;;;;;;8.77;6.60;;;;;;;;;;4983755;28;20462;-78
2021/03/15 09:28:50;;;;;;;8.73;6.70;;;;;;;;;;4999062;28;20881;-77
2021/03/15 09:31:17;;;;;;;6.73;6.10;;;;;;;;;;5019237;28;20465;-78
2021/03/15 09:33:46;;;;;;;6.70;5.50;;;;;;;;;;5003045;28;20477;-79
2021/03/15 09:36:11;;;;;;;7.17;5.60;;;;;;;;;;5016251;28;20211;-78
2021/03/15 09:38:37;;;;;;;7.67;6.90;;;;;;;;;;4988647;28;20504;-77
2021/03/15 09:41:05;;;;;;;7.80;6.47;;;;;;;;;;5001163;28;20464;-78
2021/03/15 09:43:31;;;;;;;5.90;5.30;;;;;;;;;;5010998;28;20478;-77
2021/03/15 09:45:58;;;;;;;9.00;6.07;;;;;;;;;;4986814;28;20547;-78
2021/03/15 09:48:24;;;;;;;7.33;6.03;;;;;;;;;;4987039;28;20881;-78
2021/03/15 09:50:55;;;;;;;7.70;5.30;;;;;;;;;;4998348;28;20464;-77
2021/03/15 09:53:20;;;;;;;5.87;5.37;;;;;;;;;;5021461;28;20457;-77
2021/03/15 09:55:46;;;;;;;5.13;4.63;;;;;;;;;;5037423;28;20747;-77
2021/03/15 09:58:14;;;;;;;6.50;5.20;;;;;;;;;;5021341;28;20250;-78
2021/03/15 10:00:43;;;;;;;6.43;5.40;;;;;;;;;;5020846;28;20227;-78
2021/03/15 10:03:18;;;;;;;7.43;5.00;;;;;;;;;;5029943;28;20453;-76
2021/03/15 10:05:46;;;;;;;4.57;4.13;;;;;;;;;;5016905;28;20486;-76
2021/03/15 10:08:12;;;;;;;4.80;4.30;;;;;;;;;;5004508;28;20716;-77
2021/03/15 10:10:37;;;;;;;5.80;5.20;;;;;;;;;;5003485;28;20458;-76
2021/03/15 10:13:04;;;;;;;10.67;4.77;;;;;;;;;;5002678;28;20497;-77
2021/03/15 10:15:30;;;;;;;6.23;4.20;;;;;;;;;;5018778;28;20497;-77
2021/03/15 10:17:55;;;;;;;5.53;4.20;;;;;;;;;;5018764;28;20460;-76
2021/03/15 10:20:28;;;;;;;5.20;4.00;;;;;;;;;;5019760;28;20604;-77
2021/03/15 10:22:54;;;;;;;7.10;4.60;;;;;;;;;;5019189;28;20230;-77
2021/03/15 10:25:19;;;;;;;4.13;3.47;;;;;;;;;;5019674;28;20462;-77
2021/03/15 10:28:11;;;;;;;5.80;3.83;;;;;;;;;;5002531;28;20463;-78
2021/03/15 10:30:37;;;;;;;4.87;4.20;;;;;;;;;;4997487;28;21350;-77
2021/03/15 10:33:02;;;;;;;4.67;3.07;;;;;;;;;;5019656;28;20501;-77
2021/03/15 10:35:29;;;;;;;6.50;3.30;;;;;;;;;;5018897;28;20215;-77
2021/03/15 10:37:57;;;;;;;6.10;4.10;;;;;;;;;;4995614;28;20460;-78
2021/03/15 10:40:23;;;;;;;3.80;3.10;;;;;;;;;;4990044;28;20452;-77
2021/03/15 10:42:49;;;;;;;4.03;3.63;;;;;;;;;;4987164;28;20574;-79
2021/03/15 10:45:15;;;;;;;5.70;3.27;;;;;;;;;;4984332;28;20568;-78
2021/03/15 10:47:41;;;;;;;5.83;2.70;;;;;;;;;;5020845;28;20445;-77
2021/03/15 10:50:36;;;;;;;3.60;2.90;;;;;;;;;;5011267;28;20452;-78
2021/03/15 10:53:15;;;;;;;5.00;3.00;;;;;;;;;;5015183;28;20237;-78
2021/03/15 10:55:41;;;;;;;3.03;2.80;;;;;;;;;;5012885;28;20850;-78
2021/03/15 10:58:11;;;;;;;6.17;2.47;;;;;;;;;;4983525;28;20559;-78
2021/03/15 11:00:40;;;;;;;4.30;2.57;;;;;;;;;;5002166;28;20253;-78
2021/03/15 11:03:07;;;;;;;2.60;2.40;;;;;;;;;;5025978;28;20604;-78
2021/03/15 11:05:32;;;;;;;5.07;3.10;;;;;;;;;;5000348;28;20730;-78
2021/03/15 11:07:58;;;;;;;3.53;2.80;;;;;;;;;;5013871;28;20484;-77
2021/03/15 11:10:28;;;;;;;2.50;2.27;;;;;;;;;;5002664;28;20234;-79
2021/03/15 11:12:56;;;;;;;4.23;2.23;;;;;;;;;;5017092;28;20207;-77
2021/03/15 11:15:37;;;;;;;5.63;2.87;;;;;;;;;;5001815;28;20511;-79
2021/03/15 11:18:25;;;;;;;2.60;2.40;;;;;;;;;;4999734;28;20561;-78
2021/03/15 11:20:54;;;;;;;4.33;2.43;;;;;;;;;;5000861;28;20475;-78
2021/03/15 11:23:51;;;;;;;4.20;2.83;;;;;;;;;;5001374;28;20455;-78
2021/03/15 11:26:17;;;;;;;4.90;2.73;;;;;;;;;;5015762;28;20563;-79
2021/03/15 11:28:43;;;;;;;5.47;3.50;;;;;;;;;;5038203;28;20437;-79
2021/03/15 11:31:20;;;;;;;6.23;4.07;;;;;;;;;;5037265;28;20459;-78
2021/03/15 11:34:00;;;;;;;7.57;4.40;;;;;;;;;;5020728;28;20890;-77
2021/03/15 11:36:28;;;;;;;6.43;4.37;;;;;;;;;;5020369;28;20869;-79
2021/03/15 11:39:03;;;;;;;7.93;5.20;;;;;;;;;;5006939;28;20741;-79
2021/03/15 11:41:33;;;;;;;5.47;4.77;;;;;;;;;;5017859;28;20457;-77
2021/03/15 11:44:00;;;;;;;6.40;5.80;;;;;;;;;;5017875;28;20467;-78
2021/03/15 11:46:26;;;;;;;5.77;5.10;;;;;;;;;;5009754;28;20485;-78
2021/03/15 11:48:51;;;;;;;4.90;4.50;;;;;;;;;;5037842;28;20546;-77
2021/03/15 11:51:17;;;;;;;5.17;4.70;;;;;;;;;;5034625;28;20223;-77
2021/03/15 11:53:44;;;;;;;6.23;5.63;;;;;;;;;;4999918;28;20244;-78
2021/03/15 11:56:10;;;;;;;5.57;5.07;;;;;;;;;;4983446;28;20224;-79
2021/03/15 11:58:35;;;;;;;4.43;4.03;;;;;;;;;;4999791;28;20788;-77
2021/03/15 12:01:02;;;;;;;4.50;4.10;;;;;;;;;;5016850;28;20464;-77
2021/03/15 12:03:28;;;;;;;3.23;2.93;;;;;;;;;;5009581;28;20487;-77
2021/03/15 12:05:53;;;;;;;3.57;3.27;;;;;;;;;;5009599;28;20466;-76
2021/03/15 12:08:18;;;;;;;4.40;4.00;;;;;;;;;;4999097;28;20221;-76
2021/03/15 12:10:43;;;;;;;4.77;4.37;;;;;;;;;;5016644;28;20239;-76
2021/03/15 12:13:10;;;;;;;3.30;3.10;;;;;;;;;;4999206;28;20220;-77
2021/03/15 12:15:36;;;;;;;3.90;3.20;;;;;;;;;;4999440;28;20218;-77
2021/03/15 12:18:05;;;;;;;5.60;5.10;;;;;;;;;;4999709;28;20452;-77
2021/03/15 12:20:32;;;;;;;4.10;3.70;;;;;;;;;;4998739;28;20472;-77
2021/03/15 12:22:57;;;;;;;3.97;3.60;;;;;;;;;;4999237;28;20448;-77
2021/03/15 12:25:23;;;;;;;3.50;3.20;;;;;;;;;;4998735;28;20526;-76
2021/03/15 12:27:48;;;;;;;3.17;2.93;;;;;;;;;;4999325;28;20240;-77
2021/03/15 12:30:15;;;;;;;3.50;3.20;;;;;;;;;;4998706;28;20215;-77
2021/03/15 12:32:40;;;;;;;3.77;3.47;;;;;;;;;;5000738;28;20494;-76
2021/03/15 12:35:06;;;;;;;4.70;3.57;;;;;;;;;;4984952;28;20451;-78
2021/03/15 12:37:31;;;;;;;4.07;3.13;;;;;;;;;;4998712;28;20221;-78
2021/03/15 12:39:57;;;;;;;3.93;3.63;;;;;;;;;;4999260;28;20311;-77
2021/03/15 12:42:22;;;;;;;4.13;3.70;;;;;;;;;;4984244;28;20228;-77
2021/03/15 12:44:47;;;;;;;3.83;3.53;;;;;;;;;;4963569;28;20271;-77
2021/03/15 12:47:13;;;;;;;4.33;3.47;;;;;;;;;;5009749;28;20224;-77
2021/03/15 12:49:39;;;;;;;6.67;4.50;;;;;;;;;;5035840;28;20223;-77
2021/03/15 12:52:06;;;;;;;5.10;4.60;;;;;;;;;;5011463;28;20555;-77
2021/03/15 12:54:32;;;;;;;4.70;4.30;;;;;;;;;;5000928;28;549855;-77
2021/03/15 12:56:57;;;;;;;4.77;4.20;;;;;;;;;;5008827;28;20598;-76
2021/03/15 12:59:23;;;;;;;5.40;4.90;;;;;;;;;;5000711;28;20674;-75
2021/03/15 13:01:49;;;;;;;4.87;4.43;;;;;;;;;;5005571;28;20250;-78
2021/03/15 13:04:15;;;;;;;5.07;4.60;;;;;;;;;;5003108;28;20262;-75
2021/03/15 13:06:40;;;;;;;5.17;4.67;;;;;;;;;;5010208;28;20463;-76
2021/03/15 13:09:05;;;;;;;5.03;3.93;;;;;;;;;;5004315;28;20410;-75
2021/03/15 13:11:31;;;;;;;5.40;4.90;;;;;;;;;;5004273;28;20223;-77
2021/03/15 13:13:57;;;;;;;5.20;4.10;;;;;;;;;;4985318;28;20238;-75
2021/03/15 13:16:22;;;;;;;6.50;5.13;;;;;;;;;;5001373;28;20525;-76
2021/03/15 13:18:48;;;;;;;5.37;3.93;;;;;;;;;;4984734;28;20636;-76
2021/03/15 13:21:13;;;;;;;6.30;4.20;;;;;;;;;;5001612;28;20255;-77
2021/03/15 13:23:39;;;;;;;5.73;4.33;;;;;;;;;;5000755;28;20251;-77
2021/03/15 13:26:04;;;;;;;4.63;3.30;;;;;;;;;;5002463;28;20569;-77
2021/03/15 13:28:29;;;;;;;4.87;4.07;;;;;;;;;;5039433;28;20225;-76
2021/03/15 13:30:55;;;;;;;5.67;4.33;;;;;;;;;;5040047;28;20244;-77
2021/03/15 13:33:20;;;;;;;4.83;4.33;;;;;;;;;;5039347;28;20256;-76
2021/03/15 13:35:46;;;;;;;4.77;3.87;;;;;;;;;;5039988;28;20224;-77
2021/03/15 13:38:11;;;;;;;4.80;4.20;;;;;;;;;;5031934;28;20227;-76
2021/03/15 13:40:37;;;;;;;5.83;4.30;;;;;;;;;;5038785;28;20581;-76
2021/03/15 13:43:03;;;;;;;7.30;4.43;;;;;;;;;;5033311;28;20286;-76
2021/03/15 13:45:28;;;;;;;5.87;4.00;;;;;;;;;;5020750;28;20468;-76
2021/03/15 13:47:54;;;;;;;6.40;4.63;;;;;;;;;;5034865;28;20223;-76
2021/03/15 13:50:19;;;;;;;4.97;4.33;;;;;;;;;;5028661;28;20223;-76
2021/03/15 13:52:44;;;;;;;6.00;4.23;;;;;;;;;;5022054;28;20493;-76
2021/03/15 13:55:10;;;;;;;4.83;3.77;;;;;;;;;;5020805;28;20236;-76
2021/03/15 13:57:36;;;;;;;6.57;5.77;;;;;;;;;;5022326;28;20288;-77
2021/03/15 14:00:03;;;;;;;5.67;4.63;;;;;;;;;;5020813;28;20212;-77
2021/03/15 14:02:28;;;;;;;5.43;3.93;;;;;;;;;;5024974;28;20517;-77
2021/03/15 14:04:53;;;;;;;5.83;4.63;;;;;;;;;;5029722;28;20532;-77
2021/03/15 14:07:19;;;;;;;5.07;4.03;;;;;;;;;;5023851;28;20236;-75
2021/03/15 14:09:45;;;;;;;5.10;4.03;;;;;;;;;;5021851;28;20218;-77
2021/03/15 14:12:10;;;;;;;4.80;3.70;;;;;;;;;;5025613;28;20236;-76
2021/03/15 14:14:36;;;;;;;5.77;4.43;;;;;;;;;;5030907;28;20461;-76
2021/03/15 14:17:01;;;;;;;7.13;4.27;;;;;;;;;;5024109;28;20312;-77
2021/03/15 14:19:26;;;;;;;5.70;4.27;;;;;;;;;;5033047;28;20229;-77
2021/03/15 14:21:52;;;;;;;7.60;4.47;;;;;;;;;;5036122;28;20225;-75
2021/03/15 14:24:17;;;;;;;4.87;4.20;;;;;;;;;;5038015;28;20236;-76
2021/03/15 14:26:44;;;;;;;8.17;5.20;;;;;;;;;;5030079;28;20292;-77
2021/03/15 14:29:09;;;;;;;5.13;4.17;;;;;;;;;;5005274;28;20295;-77
2021/03/15 14:31:35;;;;;;;6.73;4.40;;;;;;;;;;5020360;28;20509;-76
2021/03/15 14:34:00;;;;;;;5.63;5.03;;;;;;;;;;5021610;28;20222;-77
2021/03/15 14:36:25;;;;;;;4.53;4.13;;;;;;;;;;5019959;28;20221;-77
2021/03/15 14:38:51;;;;;;;5.33;4.00;;;;;;;;;;5033547;28;20614;-76
2021/03/15 14:41:16;;;;;;;5.13;4.03;;;;;;;;;;5030781;28;20313;-77
2021/03/15 14:43:41;;;;;;;5.70;4.27;;;;;;;;;;5019754;28;20224;-77
2021/03/15 14:46:07;;;;;;;4.87;4.40;;;;;;;;;;5020163;28;20224;-77
2021/03/15 14:48:32;;;;;;;4.77;4.27;;;;;;;;;;5002109;28;20263;-76
2021/03/15 14:50:57;;;;;;;5.80;3.90;;;;;;;;;;5014881;28;20245;-77